EZY97TM EGGD-LFBD
Flight info
| Callsign | EZY97TM |
|---|---|
| Flight time | 1h 20m |
| Altitude | 33000 |
| Route | EXMOR N92 DAWLY DCT BHD DCT MANIG DCT BADUR DCT KORER UM616 LUGEN UM616 TUPAR DCT CNA |
| Aircraft | A21N/M-SDE3FGHIRWY/LB1 |
Departure
| Time | 2026-05-04 16:42 |
|---|---|
| Airport | Bristol Airport (EGGD) |
Arrival
| Time | 2026-05-04 18:02 |
|---|---|
| Airport | Bordeaux–Mérignac Airport (LFBD) |
| Time | Latitude | Longitude | Altitude | Speed | Heading |
|---|---|---|---|---|---|
| 2026-05-04 16:21 | 51.38547 | -2.71533 | 595 ft | 0 kts | 356° |
| 2026-05-04 16:33 | 51.38530 | -2.71530 | 596 ft | 2 kts | 353° |
| 2026-05-04 16:33 | 51.38500 | -2.71525 | 598 ft | 2 kts | 354° |
| 2026-05-04 16:34 | 51.38470 | -2.71521 | 598 ft | 2 kts | 354° |
| 2026-05-04 16:34 | 51.38455 | -2.71519 | 599 ft | 2 kts | 354° |
| 2026-05-04 16:35 | 51.38444 | -2.71517 | 599 ft | 0 kts | 354° |
| 2026-05-04 16:36 | 51.38447 | -2.71518 | 599 ft | 0 kts | 343° |
| 2026-05-04 16:37 | 51.38440 | -2.71594 | 599 ft | 8 kts | 258° |
| 2026-05-04 16:37 | 51.38435 | -2.71694 | 599 ft | 9 kts | 268° |
| 2026-05-04 16:37 | 51.38430 | -2.71898 | 603 ft | 9 kts | 267° |
| 2026-05-04 16:38 | 51.38428 | -2.72091 | 604 ft | 9 kts | 269° |
| 2026-05-04 16:39 | 51.38418 | -2.72358 | 609 ft | 8 kts | 266° |
| 2026-05-04 16:39 | 51.38405 | -2.72668 | 611 ft | 14 kts | 266° |
| 2026-05-04 16:40 | 51.38391 | -2.73032 | 604 ft | 14 kts | 266° |
| 2026-05-04 16:40 | 51.38362 | -2.73305 | 594 ft | 11 kts | 224° |
| 2026-05-04 16:41 | 51.38221 | -2.73284 | 597 ft | 9 kts | 109° |
| 2026-05-04 16:41 | 51.38320 | -2.70474 | 697 ft | 176 kts | 85° |
| 2026-05-04 16:42 | 51.38500 | -2.64616 | 3114 ft | 184 kts | 84° |
| 2026-05-04 16:43 | 51.38646 | -2.60164 | 4115 ft | 217 kts | 85° |
| 2026-05-04 16:43 | 51.38295 | -2.54953 | 5020 ft | 262 kts | 121° |
| 2026-05-04 16:43 | 51.36937 | -2.52979 | 5741 ft | 273 kts | 154° |
| 2026-05-04 16:44 | 51.30789 | -2.58175 | 9071 ft | 286 kts | 248° |
| 2026-05-04 16:45 | 51.30389 | -2.64464 | 10567 ft | 296 kts | 269° |
| 2026-05-04 16:46 | 51.30222 | -2.75107 | 11791 ft | 343 kts | 266° |
| 2026-05-04 16:46 | 51.29947 | -2.82755 | 13288 ft | 350 kts | 265° |
| 2026-05-04 16:47 | 51.29633 | -2.90570 | 14701 ft | 357 kts | 265° |
| 2026-05-04 16:47 | 51.29153 | -2.98445 | 16050 ft | 363 kts | 256° |
| 2026-05-04 16:48 | 51.26228 | -3.09560 | 17976 ft | 370 kts | 241° |
| 2026-05-04 16:48 | 51.25047 | -3.13247 | 18596 ft | 373 kts | 241° |
| 2026-05-04 16:49 | 51.22699 | -3.20630 | 19824 ft | 379 kts | 241° |
| 2026-05-04 16:49 | 51.20321 | -3.28143 | 21039 ft | 384 kts | 241° |
| 2026-05-04 16:50 | 51.17091 | -3.34767 | 22115 ft | 383 kts | 212° |
| 2026-05-04 16:50 | 51.12065 | -3.37037 | 23231 ft | 383 kts | 186° |
| 2026-05-04 16:51 | 51.06758 | -3.37906 | 24242 ft | 389 kts | 186° |
| 2026-05-04 16:51 | 51.04073 | -3.38358 | 24734 ft | 391 kts | 186° |
| 2026-05-04 16:51 | 50.98616 | -3.39293 | 25604 ft | 396 kts | 186° |
| 2026-05-04 16:52 | 50.93154 | -3.40237 | 26414 ft | 401 kts | 186° |
| 2026-05-04 16:52 | 50.90341 | -3.40725 | 26790 ft | 404 kts | 186° |
| 2026-05-04 16:53 | 50.84748 | -3.41693 | 27519 ft | 409 kts | 186° |
| 2026-05-04 16:53 | 50.79363 | -3.42622 | 28191 ft | 413 kts | 185° |
| 2026-05-04 16:54 | 50.76510 | -3.43112 | 28558 ft | 415 kts | 185° |
| 2026-05-04 16:55 | 50.66015 | -3.44908 | 30259 ft | 410 kts | 185° |
| 2026-05-04 16:55 | 50.61531 | -3.45675 | 30907 ft | 409 kts | 185° |
| 2026-05-04 16:56 | 50.55917 | -3.46633 | 31551 ft | 409 kts | 185° |
| 2026-05-04 16:56 | 50.47413 | -3.48038 | 32277 ft | 413 kts | 183° |
| 2026-05-04 16:57 | 50.44518 | -3.48268 | 32491 ft | 414 kts | 180° |
| 2026-05-04 16:57 | 50.38788 | -3.47969 | 32939 ft | 416 kts | 174° |
| 2026-05-04 16:58 | 50.27439 | -3.44539 | 32996 ft | 417 kts | 165° |
| 2026-05-04 17:00 | 50.10592 | -3.38087 | 33007 ft | 416 kts | 166° |
| 2026-05-04 17:01 | 49.96616 | -3.32764 | 33014 ft | 415 kts | 165° |
| 2026-05-04 17:02 | 49.85457 | -3.28537 | 33003 ft | 414 kts | 165° |
| 2026-05-04 17:03 | 49.77045 | -3.25491 | 32993 ft | 415 kts | 168° |
| 2026-05-04 17:03 | 49.68586 | -3.23016 | 32994 ft | 414 kts | 168° |
| 2026-05-04 17:04 | 49.57283 | -3.19713 | 32999 ft | 414 kts | 168° |
| 2026-05-04 17:05 | 49.45982 | -3.16434 | 32993 ft | 414 kts | 168° |
| 2026-05-04 17:06 | 49.37508 | -3.13986 | 32990 ft | 414 kts | 168° |
| 2026-05-04 17:07 | 49.29991 | -3.11824 | 32986 ft | 413 kts | 168° |
| 2026-05-04 17:07 | 49.23438 | -3.09941 | 32995 ft | 413 kts | 168° |
| 2026-05-04 17:08 | 49.14984 | -3.07521 | 32997 ft | 413 kts | 168° |
| 2026-05-04 17:09 | 49.09320 | -3.05906 | 32992 ft | 413 kts | 168° |
| 2026-05-04 17:09 | 49.03674 | -3.04299 | 32990 ft | 413 kts | 168° |
| 2026-05-04 17:10 | 48.89568 | -3.00300 | 32991 ft | 412 kts | 168° |
| 2026-05-04 17:11 | 48.83951 | -2.98714 | 32986 ft | 412 kts | 168° |
| 2026-05-04 17:12 | 48.75529 | -2.96346 | 32994 ft | 412 kts | 168° |
| 2026-05-04 17:13 | 48.61699 | -2.90885 | 32977 ft | 411 kts | 162° |
| 2026-05-04 17:14 | 48.50741 | -2.86014 | 32975 ft | 411 kts | 162° |
| 2026-05-04 17:15 | 48.42533 | -2.82372 | 32978 ft | 411 kts | 163° |
| 2026-05-04 17:16 | 48.31607 | -2.77543 | 32955 ft | 411 kts | 163° |
| 2026-05-04 17:17 | 48.20665 | -2.72728 | 32951 ft | 411 kts | 163° |
| 2026-05-04 17:18 | 48.09703 | -2.67927 | 32952 ft | 411 kts | 163° |
| 2026-05-04 17:19 | 47.98788 | -2.63167 | 32950 ft | 410 kts | 163° |
| 2026-05-04 17:20 | 47.87867 | -2.58426 | 32961 ft | 410 kts | 163° |
| 2026-05-04 17:20 | 47.79685 | -2.54893 | 32953 ft | 410 kts | 163° |
| 2026-05-04 17:21 | 47.69236 | -2.48368 | 32960 ft | 409 kts | 148° |
| 2026-05-04 17:22 | 47.64753 | -2.43225 | 32981 ft | 410 kts | 138° |
| 2026-05-04 17:23 | 47.57161 | -2.30681 | 32957 ft | 410 kts | 133° |
| 2026-05-04 17:24 | 47.51591 | -2.21172 | 32964 ft | 409 kts | 133° |
| 2026-05-04 17:25 | 47.44141 | -2.08513 | 32968 ft | 408 kts | 133° |
| 2026-05-04 17:26 | 47.36689 | -1.95917 | 32956 ft | 409 kts | 134° |
| 2026-05-04 17:27 | 47.27376 | -1.80216 | 32952 ft | 408 kts | 134° |
| 2026-05-04 17:28 | 47.19898 | -1.67669 | 32948 ft | 407 kts | 134° |
| 2026-05-04 17:29 | 47.07788 | -1.50380 | 32946 ft | 406 kts | 140° |
| 2026-05-04 17:31 | 46.97306 | -1.36642 | 32939 ft | 405 kts | 140° |
| 2026-05-04 17:32 | 46.86847 | -1.22979 | 32940 ft | 405 kts | 141° |
| 2026-05-04 17:33 | 46.78473 | -1.12095 | 32931 ft | 404 kts | 141° |
| 2026-05-04 17:34 | 46.70095 | -1.01249 | 32919 ft | 403 kts | 141° |
| 2026-05-04 17:35 | 46.59645 | -0.87792 | 32919 ft | 403 kts | 141° |
| 2026-05-04 17:36 | 46.55464 | -0.82407 | 32764 ft | 403 kts | 141° |
| 2026-05-04 17:36 | 46.53377 | -0.79714 | 32526 ft | 400 kts | 141° |
| 2026-05-04 17:36 | 46.51327 | -0.77072 | 32291 ft | 396 kts | 141° |
| 2026-05-04 17:36 | 46.49254 | -0.74412 | 32053 ft | 392 kts | 142° |
| 2026-05-04 17:37 | 46.47178 | -0.71976 | 31813 ft | 387 kts | 146° |
| 2026-05-04 17:37 | 46.44966 | -0.69708 | 31570 ft | 384 kts | 149° |
| 2026-05-04 17:37 | 46.42725 | -0.67705 | 31334 ft | 382 kts | 152° |
| 2026-05-04 17:37 | 46.40385 | -0.65894 | 31099 ft | 381 kts | 155° |
| 2026-05-04 17:38 | 46.37984 | -0.64309 | 30854 ft | 379 kts | 158° |
| 2026-05-04 17:38 | 46.35533 | -0.62946 | 30580 ft | 379 kts | 161° |
| 2026-05-04 17:38 | 46.33050 | -0.61775 | 30307 ft | 379 kts | 162° |
| 2026-05-04 17:38 | 46.30528 | -0.60602 | 30025 ft | 381 kts | 162° |
| 2026-05-04 17:39 | 46.25471 | -0.58255 | 29308 ft | 384 kts | 162° |
| 2026-05-04 17:39 | 46.22915 | -0.57075 | 28817 ft | 386 kts | 162° |
| 2026-05-04 17:39 | 46.20368 | -0.55902 | 28254 ft | 389 kts | 162° |
| 2026-05-04 17:40 | 46.17804 | -0.54721 | 27670 ft | 388 kts | 162° |
| 2026-05-04 17:40 | 46.15253 | -0.53548 | 27271 ft | 385 kts | 162° |
| 2026-05-04 17:40 | 46.12724 | -0.52389 | 26843 ft | 383 kts | 162° |
| 2026-05-04 17:40 | 46.10175 | -0.51220 | 26359 ft | 380 kts | 162° |
| 2026-05-04 17:41 | 46.07698 | -0.50085 | 25890 ft | 377 kts | 162° |
| 2026-05-04 17:41 | 46.05196 | -0.48941 | 25397 ft | 374 kts | 162° |
| 2026-05-04 17:41 | 46.02737 | -0.47819 | 24899 ft | 371 kts | 162° |
| 2026-05-04 17:41 | 46.00279 | -0.46697 | 24406 ft | 368 kts | 162° |
| 2026-05-04 17:42 | 45.97857 | -0.45594 | 23938 ft | 365 kts | 162° |
| 2026-05-04 17:42 | 45.95455 | -0.44501 | 23470 ft | 363 kts | 162° |
| 2026-05-04 17:42 | 45.93076 | -0.43422 | 23003 ft | 361 kts | 163° |
| 2026-05-04 17:42 | 45.90671 | -0.42331 | 22537 ft | 358 kts | 163° |
| 2026-05-04 17:43 | 45.88303 | -0.41257 | 22089 ft | 356 kts | 163° |
| 2026-05-04 17:43 | 45.85947 | -0.40190 | 21618 ft | 355 kts | 163° |
| 2026-05-04 17:43 | 45.83588 | -0.39123 | 21132 ft | 354 kts | 163° |
| 2026-05-04 17:43 | 45.81249 | -0.38065 | 20649 ft | 353 kts | 163° |
| 2026-05-04 17:44 | 45.78901 | -0.37003 | 20173 ft | 352 kts | 163° |
| 2026-05-04 17:44 | 45.76585 | -0.35957 | 19713 ft | 351 kts | 163° |
| 2026-05-04 17:44 | 45.74263 | -0.34907 | 19239 ft | 349 kts | 164° |
| 2026-05-04 17:44 | 45.71955 | -0.33865 | 18778 ft | 348 kts | 164° |
| 2026-05-04 17:45 | 45.69675 | -0.32837 | 18321 ft | 347 kts | 163° |
| 2026-05-04 17:45 | 45.67346 | -0.31858 | 17872 ft | 345 kts | 167° |
| 2026-05-04 17:45 | 45.65032 | -0.31124 | 17420 ft | 344 kts | 171° |
| 2026-05-04 17:45 | 45.62671 | -0.30619 | 16964 ft | 342 kts | 174° |
| 2026-05-04 17:46 | 45.60310 | -0.30229 | 16533 ft | 341 kts | 175° |
| 2026-05-04 17:46 | 45.57962 | -0.29847 | 16084 ft | 340 kts | 174° |
| 2026-05-04 17:46 | 45.55622 | -0.29463 | 15613 ft | 339 kts | 174° |
| 2026-05-04 17:46 | 45.53306 | -0.29084 | 15165 ft | 338 kts | 174° |
| 2026-05-04 17:47 | 45.50983 | -0.28703 | 14718 ft | 337 kts | 174° |
| 2026-05-04 17:47 | 45.48660 | -0.28322 | 14256 ft | 337 kts | 175° |
| 2026-05-04 17:47 | 45.46314 | -0.27939 | 13792 ft | 337 kts | 175° |
| 2026-05-04 17:47 | 45.44014 | -0.27565 | 13339 ft | 336 kts | 174° |
| 2026-05-04 17:48 | 45.41674 | -0.27184 | 12878 ft | 335 kts | 174° |
| 2026-05-04 17:48 | 45.39358 | -0.26807 | 12423 ft | 334 kts | 174° |
| 2026-05-04 17:48 | 45.37065 | -0.26433 | 11976 ft | 333 kts | 175° |
| 2026-05-04 17:48 | 45.34755 | -0.26056 | 11523 ft | 331 kts | 175° |
| 2026-05-04 17:49 | 45.32467 | -0.25685 | 11077 ft | 330 kts | 175° |
| 2026-05-04 17:49 | 45.30199 | -0.25317 | 10633 ft | 329 kts | 175° |
| 2026-05-04 17:49 | 45.27925 | -0.24948 | 10392 ft | 319 kts | 175° |
| 2026-05-04 17:49 | 45.25779 | -0.24600 | 10250 ft | 307 kts | 175° |
| 2026-05-04 17:50 | 45.23694 | -0.24261 | 10102 ft | 291 kts | 175° |
| 2026-05-04 17:50 | 45.21711 | -0.23940 | 9976 ft | 278 kts | 175° |
| 2026-05-04 17:50 | 45.19811 | -0.23633 | 9730 ft | 274 kts | 175° |
| 2026-05-04 17:50 | 45.17904 | -0.23428 | 9339 ft | 273 kts | 186° |
| 2026-05-04 17:51 | 45.16135 | -0.24252 | 8957 ft | 269 kts | 215° |
| 2026-05-04 17:51 | 45.14777 | -0.26003 | 8625 ft | 266 kts | 227° |
| 2026-05-04 17:51 | 45.13502 | -0.27908 | 8290 ft | 265 kts | 227° |
| 2026-05-04 17:51 | 45.12249 | -0.29762 | 8132 ft | 255 kts | 227° |
| 2026-05-04 17:52 | 45.11024 | -0.31549 | 8044 ft | 246 kts | 227° |
| 2026-05-04 17:52 | 45.09774 | -0.33191 | 7925 ft | 247 kts | 213° |
| 2026-05-04 17:52 | 45.08149 | -0.34006 | 7886 ft | 249 kts | 189° |
| 2026-05-04 17:52 | 45.06421 | -0.34244 | 7906 ft | 250 kts | 187° |
| 2026-05-04 17:53 | 45.04675 | -0.34460 | 7912 ft | 250 kts | 187° |
| 2026-05-04 17:53 | 45.02950 | -0.34683 | 7914 ft | 250 kts | 187° |
| 2026-05-04 17:53 | 45.01199 | -0.34920 | 7912 ft | 250 kts | 187° |
| 2026-05-04 17:53 | 44.99451 | -0.35162 | 7684 ft | 252 kts | 188° |
| 2026-05-04 17:54 | 44.97710 | -0.35408 | 7337 ft | 251 kts | 188° |
| 2026-05-04 17:54 | 44.95978 | -0.35652 | 7011 ft | 249 kts | 188° |
| 2026-05-04 17:54 | 44.94257 | -0.35896 | 6696 ft | 247 kts | 188° |
| 2026-05-04 17:54 | 44.92553 | -0.36138 | 6392 ft | 245 kts | 188° |
| 2026-05-04 17:55 | 44.90885 | -0.36375 | 6093 ft | 243 kts | 188° |
| 2026-05-04 17:55 | 44.89178 | -0.36616 | 5785 ft | 244 kts | 188° |
| 2026-05-04 17:55 | 44.87509 | -0.36852 | 5500 ft | 244 kts | 188° |
| 2026-05-04 17:55 | 44.85805 | -0.37118 | 5206 ft | 244 kts | 191° |
| 2026-05-04 17:56 | 44.84168 | -0.37609 | 4912 ft | 243 kts | 198° |
| 2026-05-04 17:56 | 44.82546 | -0.38276 | 4615 ft | 243 kts | 199° |
| 2026-05-04 17:56 | 44.80931 | -0.38963 | 4320 ft | 242 kts | 200° |
| 2026-05-04 17:56 | 44.79317 | -0.39650 | 4026 ft | 241 kts | 200° |
| 2026-05-04 17:57 | 44.77776 | -0.40549 | 3674 ft | 237 kts | 221° |
| 2026-05-04 17:57 | 44.76900 | -0.42383 | 3350 ft | 224 kts | 262° |
| 2026-05-04 17:57 | 44.76999 | -0.44486 | 3109 ft | 213 kts | 288° |
| 2026-05-04 17:57 | 44.77480 | -0.46417 | 2959 ft | 204 kts | 293° |
| 2026-05-04 17:58 | 44.77962 | -0.48277 | 3045 ft | 194 kts | 291° |
| 2026-05-04 17:58 | 44.78357 | -0.49984 | 3026 ft | 172 kts | 290° |
| 2026-05-04 17:58 | 44.78683 | -0.51510 | 2835 ft | 154 kts | 290° |
| 2026-05-04 17:58 | 44.78968 | -0.52880 | 2617 ft | 141 kts | 290° |
| 2026-05-04 17:59 | 44.79239 | -0.54183 | 2423 ft | 138 kts | 290° |
| 2026-05-04 17:59 | 44.79508 | -0.55481 | 2243 ft | 138 kts | 290° |
| 2026-05-04 17:59 | 44.80044 | -0.58063 | 1896 ft | 137 kts | 290° |
| 2026-05-04 18:00 | 44.80313 | -0.59354 | 1714 ft | 137 kts | 290° |
| 2026-05-04 18:00 | 44.80580 | -0.60638 | 1528 ft | 136 kts | 290° |
| 2026-05-04 18:00 | 44.80847 | -0.61914 | 1339 ft | 136 kts | 289° |
| 2026-05-04 18:00 | 44.81111 | -0.63177 | 1160 ft | 136 kts | 289° |
| 2026-05-04 18:01 | 44.81382 | -0.64461 | 972 ft | 135 kts | 289° |
| 2026-05-04 18:01 | 44.81645 | -0.65717 | 772 ft | 135 kts | 288° |
| 2026-05-04 18:01 | 44.81910 | -0.66992 | 605 ft | 134 kts | 287° |
| 2026-05-04 18:02 | 44.82439 | -0.69515 | 262 ft | 133 kts | 287° |
| 2026-05-04 18:02 | 44.82698 | -0.70737 | 162 ft | 119 kts | 286° |
| 2026-05-04 18:02 | 44.82851 | -0.71467 | 163 ft | 48 kts | 285° |
| 2026-05-04 18:02 | 44.82941 | -0.71885 | 161 ft | 40 kts | 287° |
| 2026-05-04 18:03 | 44.82986 | -0.72103 | 160 ft | 10 kts | 286° |
| 2026-05-04 18:03 | 44.83022 | -0.72141 | 160 ft | 7 kts | 14° |
| 2026-05-04 18:03 | 44.83074 | -0.72119 | 159 ft | 8 kts | 18° |
| 2026-05-04 18:03 | 44.83134 | -0.72091 | 160 ft | 9 kts | 27° |
| 2026-05-04 18:04 | 44.83164 | -0.72012 | 159 ft | 10 kts | 95° |
| 2026-05-04 18:04 | 44.83144 | -0.71912 | 159 ft | 11 kts | 106° |
| 2026-05-04 18:04 | 44.83094 | -0.71674 | 163 ft | 11 kts | 105° |
| 2026-05-04 18:05 | 44.83071 | -0.71563 | 163 ft | 12 kts | 107° |
| 2026-05-04 18:05 | 44.83044 | -0.71437 | 164 ft | 14 kts | 107° |
| 2026-05-04 18:05 | 44.83017 | -0.71307 | 166 ft | 13 kts | 105° |
| 2026-05-04 18:05 | 44.82991 | -0.71176 | 166 ft | 13 kts | 106° |
| 2026-05-04 18:06 | 44.82974 | -0.70925 | 162 ft | 13 kts | 44° |
| 2026-05-04 18:06 | 44.83048 | -0.70823 | 159 ft | 15 kts | 45° |
| 2026-05-04 18:06 | 44.83129 | -0.70707 | 157 ft | 17 kts | 45° |
| 2026-05-04 18:07 | 44.83195 | -0.70613 | 156 ft | 7 kts | 45° |
| 2026-05-04 18:07 | 44.83195 | -0.70546 | 156 ft | 8 kts | 131° |
| 2026-05-04 18:07 | 44.83153 | -0.70502 | 156 ft | 7 kts | 139° |
| 2026-05-04 18:07 | 44.83133 | -0.70457 | 157 ft | 4 kts | 117° |
| 2026-05-04 18:08 | 44.83131 | -0.70451 | 157 ft | 0 kts | 117° |